Flight Track Log - Related Links

Times and Time Zones

All times are in EDT time to prevent confusion due to time zone crossing. See the C-FMFU flight status page for this flight to view local times or setup timezone preferences in your user account.

Time Position Orientation Groundspeed Altitude Reporting Facility
EDT Latitude Longitude Course Direction KTS MPH feet Rate Location/Type
Fri 11:07:16 AM 49.9167 -98.3500 314° West 160 184 2,100  Level Winnipeg Center
Fri 11:08:16 AM 49.9500 -98.3667 342° North 160 184 3,400 1,400 Climbing Winnipeg Center
Fri 11:09:16 AM 49.9667 -98.4167 297° West 150 173 4,900 1,300 Climbing Winnipeg Center
Fri 11:10:16 AM 50.0000 -98.4833 308° West 150 173 6,000 1,300 Climbing Winnipeg Center
Fri 11:11:16 AM 50.0333 -98.5333 316° Northwest 160 184 7,500 1,000 Climbing Winnipeg Center
Fri 11:12:00 AM 49.9028 -98.2747 261° West  Level Estimated
Fri 11:12:16 AM 50.0667 -98.5500 342° North 170 196 8,000  Level Winnipeg Center
Fri 11:13:00 AM 49.9028 -98.2747 314° West  Level Estimated
Fri 11:13:16 AM 50.1000 -98.6333 302° West 200 230 8,000  Level Winnipeg Center
Fri 11:14:16 AM 50.0833 -98.7333 255° West 220 253 8,000  Level Winnipeg Center
Fri 11:15:16 AM 50.0667 -98.8167 253° West 220 253 8,000  Level Winnipeg Center
Fri 11:16:16 AM 50.0500 -98.9167 255° West 230 265 8,000  Level Winnipeg Center
Fri 11:17:16 AM 50.0500 -99.0167 270° West 230 265 8,000  Level Winnipeg Center
Fri 11:18:16 AM 50.0333 -99.1333 258° West 220 253 8,000  Level Winnipeg Center
Fri 11:19:16 AM 50.0000 -99.2000 232° Southwest 200 230 8,000  Level Winnipeg Center
Fri 11:20:16 AM 50.0000 -99.2833 270° West 180 207 8,000 -350 Level Winnipeg Center
Fri 11:21:16 AM 49.9833 -99.3333 243° Southwest 170 196 7,300 -700 Descending Winnipeg Center
Fri 11:22:16 AM 49.9667 -99.4167 253° West 170 196 6,600 -850 Descending Winnipeg Center
Fri 11:23:16 AM 49.9667 -99.4833 270° West 170 196 5,600 -1,450 Descending Winnipeg Center
Fri 11:24:16 AM 49.9500 -99.5333 243° Southwest 160 184 3,700 -1,150 Descending Winnipeg Center
Fri 11:25:16 AM 49.9500 -99.6167 270° West 160 184 3,300 -200 Descending Winnipeg Center
Fri 11:26:16 AM 49.9333 -99.7000 253° West 160 184 3,300  Level Winnipeg Center
Fri 11:27:16 AM 49.9167 -99.7167 213° Southwest 150 173 3,300  Level Winnipeg Center
Fri 11:28:16 AM 49.8667 -99.7500 203° Southwest 150 173 3,300  Level Winnipeg Center
Fri 11:29:16 AM 49.8833 -99.8000 297° West 150 173 3,300 -400 Level Winnipeg Center
Fri 11:30:16 AM 49.8833 -99.8667 270° West 160 184 2,500 -76 Descending Winnipeg Center
Fri 11:32:00 AM 49.9492 -99.9540 357° North  Level FlightAware Approximate
Fri 11:33:12 AM 49.8833 -100.0333 357° North 130 150 3,000  Level Winnipeg Center
Fri 11:34:12 AM 49.9000 -100.0833 297° West 150 173 4,400 1,350 Climbing Winnipeg Center
Fri 11:35:12 AM 49.9333 -100.1167 327° Northwest 140 161 5,700 1,300 Climbing Winnipeg Center
Fri 11:36:12 AM 49.9667 -100.0667 44° Northeast 150 173 7,000 1,150 Climbing Winnipeg Center
Fri 11:37:12 AM 50.0000 -100.0167 44° Northeast 160 184 8,000 500 Climbing Winnipeg Center
Fri 11:38:12 AM 50.0333 -99.9667 44° Northeast 200 230 8,000  Level Winnipeg Center
Fri 11:39:12 AM 50.1000 -99.9667 360° North 210 242 8,000  Level Winnipeg Center
Fri 11:40:12 AM 50.1500 -99.9667 360° North 220 253 8,000  Level Winnipeg Center
Fri 11:41:12 AM 50.2333 -99.9667 360° North 220 253 8,000  Level Winnipeg Center
Fri 11:42:12 AM 50.3000 -99.9833 351° North 220 253 8,000  Level Winnipeg Center
Fri 11:43:12 AM 50.3667 -99.9833 360° North 220 253 8,000  Level Winnipeg Center
Fri 11:44:12 AM 50.4167 -99.9833 360° North 220 253 8,000  Level Winnipeg Center
Fri 11:45:12 AM 50.4833 -99.9833 360° North 220 253 8,000  Level Winnipeg Center
Fri 11:46:12 AM 50.5500 -100.0000 351° North 220 253 8,000  Level Winnipeg Center
Fri 11:47:12 AM 50.6000 -100.0000 360° North 230 265 8,000  Level Winnipeg Center
Fri 11:48:12 AM 50.6667 -100.0333 342° North 220 253 8,000 -100 Level Winnipeg Center
Fri 11:49:12 AM 50.7333 -100.0333 360° North 220 253 7,800 -500 Descending Winnipeg Center
Fri 11:50:12 AM 50.7833 -100.0333 360° North 220 253 7,000 -900 Descending Winnipeg Center
Fri 11:51:12 AM 50.8333 -100.1000 320° Northwest 220 253 6,000 -900 Descending Winnipeg Center
Fri 11:52:12 AM 50.8833 -100.1167 348° North 220 253 5,200 -800 Descending Winnipeg Center
Fri 11:53:12 AM 50.9500 -100.1500 343° North 210 242 4,400 -700 Descending Winnipeg Center
Fri 11:54:12 AM 51.0000 -100.1833 337° Northwest 210 242 3,800 -350 Descending Winnipeg Center
Fri 11:55:12 AM 51.0500 -100.2167 337° Northwest 200 230 3,700 -50 Descending Winnipeg Center
Fri 11:56:12 AM 51.1000 -100.2500 337° Northwest 180 207 3,700  Level Winnipeg Center
Fri 11:57:12 AM 51.1333 -100.2667 343° North 170 196 3,700 -24 Level Winnipeg Center
Fri 11:59:00 AM 51.0733 -100.1332 126° Southeast  Level FlightAware Approximate
Fri 12:04:40 PM 51.0667 -100.0333 126° Southeast 140 161 3,500  Level Winnipeg Center
Fri 12:05:40 PM 51.0500 -100.0000 128° Southeast 140 161 4,900 1,500 Climbing Winnipeg Center
Fri 12:06:00 PM 50.8383 -99.6174 126° Southeast  Level FlightAware Approximate
Fri 12:06:40 PM 51.0333 -99.9167 108° East 150 173 6,500  Level Winnipeg Center
Fri 12:07:00 PM 50.8046 -99.5442 126° Southeast  Level FlightAware Approximate
Fri 12:07:40 PM 51.0000 -99.8667 137° Southeast 160 184 7,000  Level Winnipeg Center
Fri 12:08:00 PM 50.7708 -99.4710 126° Southeast  Level FlightAware Approximate
Fri 12:08:40 PM 50.9667 -99.8167 137° Southeast 210 242 7,000  Level Winnipeg Center
Fri 12:09:00 PM 50.7369 -99.3980 126° Southeast  Level FlightAware Approximate
Fri 12:09:40 PM 50.9167 -99.7333 134° Southeast 220 253 7,000  Level Winnipeg Center
Fri 12:10:40 PM 50.8833 -99.6500 122° Southeast 230 265 7,000  Level Winnipeg Center
Fri 12:11:40 PM 50.8333 -99.5667 134° Southeast 230 265 7,000  Level Winnipeg Center
Fri 12:12:40 PM 50.8000 -99.4833 122° Southeast 230 265 7,000  Level Winnipeg Center
Fri 12:13:40 PM 50.7500 -99.4000 133° Southeast 230 265 7,000  Level Winnipeg Center
Fri 12:14:40 PM 50.7333 -99.3167 108° East 230 265 7,000  Level Winnipeg Center
Fri 12:15:40 PM 50.6833 -99.2333 133° Southeast 230 265 7,000  Level Winnipeg Center
Fri 12:16:40 PM 50.6333 -99.1500 133° Southeast 230 265 7,000  Level Winnipeg Center
Fri 12:17:40 PM 50.6000 -99.0667 122° Southeast 230 265 7,000  Level Winnipeg Center
Fri 12:18:40 PM 50.5500 -99.0000 140° Southeast 230 265 7,000  Level Winnipeg Center
Fri 12:19:40 PM 50.5167 -98.9167 122° Southeast 230 265 7,000  Level Winnipeg Center
Fri 12:20:40 PM 50.4667 -98.8333 133° Southeast 230 265 7,000  Level Winnipeg Center
Fri 12:21:40 PM 50.4333 -98.7833 136° Southeast 230 265 7,000  Level Winnipeg Center
Fri 12:22:40 PM 50.3833 -98.7000 133° Southeast 230 265 7,000  Level Winnipeg Center
Fri 12:23:40 PM 50.3167 -98.6500 154° Southeast 240 276 7,000  Level Winnipeg Center
Fri 12:24:40 PM 50.2667 -98.6167 157° South 240 276 7,000 -50 Level Winnipeg Center
Fri 12:25:40 PM 50.2167 -98.5667 147° Southeast 230 265 6,900 -400 Descending Winnipeg Center
Fri 12:26:40 PM 50.1500 -98.5000 147° Southeast 230 265 6,200 -750 Descending Winnipeg Center
Fri 12:27:40 PM 50.1000 -98.4500 147° Southeast 230 265 5,400 -650 Descending Winnipeg Center
Fri 12:28:40 PM 50.0333 -98.4000 154° Southeast 230 265 4,900 -250 Descending Winnipeg Center
Fri 12:29:40 PM 49.9833 -98.3500 147° Southeast 230 265 4,900  Level Winnipeg Center
Fri 12:30:40 PM 49.9333 -98.2833 139° Southeast 220 253 4,900  Level Winnipeg Center
Fri 12:31:40 PM 49.9000 -98.2167 128° Southeast 220 253 4,900  Level Winnipeg Center
Fri 12:32:40 PM 49.8667 -98.1333 122° Southeast 220 253 4,900  Level Winnipeg Center
Fri 12:33:40 PM 49.8333 -98.0500 122° Southeast 220 253 4,900  Level Winnipeg Center
Fri 12:34:40 PM 49.8000 -97.9833 128° Southeast 210 242 4,900 -250 Level Winnipeg Center
Fri 12:35:40 PM 49.7833 -97.9167 111° Southeast 200 230 4,400 -700 Descending Winnipeg Center
Fri 12:36:40 PM 49.7167 -97.9500 198° South 200 230 3,500 -750 Descending Winnipeg Center
Fri 12:37:40 PM 49.7333 -98.0333 287° West 170 196 2,900 -250 Descending Winnipeg Center
Fri 12:38:40 PM 49.7500 -98.0833 297° West 150 173 3,000 100 Climbing Winnipeg Center

Login

Don't have an account? Register now (free) for customized features, flight alerts, and more!